Time;durP1;ratioP1;P1;durP2;ratioP2;P2;SDS_P1;SDS_P2;PMS_P1;PMS_P2;Temp;Humidity;BMP_temperature;BMP_pressure;BME280_temperature;BME280_humidity;BME280_pressure;Samples;Min_cycle;Max_cycle;Signal;HPM_P1;HPM_P2
2021/07/17 16:58:11;;;;;;;;;;;;;;;;;;;;;
2021/07/17 17:01:35;;;;;;;8.98;2.15;;;26.90;99.90;;;;;;4930833;29;20028;-82
2021/07/17 17:15:11;;;;;;;;;;;;;;;;;;;;;
2021/07/17 17:22:13;;;;;;;5.10;2.50;;;26.50;99.90;;;;;;4810448;29;20065;-85
2021/07/17 17:29:44;;;;;;;5.95;2.05;;;26.30;99.90;;;;;;4827030;29;20067;-88
2021/07/17 17:39:12;;;;;;;6.72;2.33;;;26.20;99.90;;;;;;4877826;29;20044;-84
2021/07/17 17:41:52;;;;;;;7.32;2.28;;;26.20;99.90;;;;;;4823313;29;20046;-83
2021/07/17 17:44:19;;;;;;;4.28;2.25;;;26.10;99.90;;;;;;4935885;23;20102;-75
2021/07/17 17:46:45;;;;;;;3.88;2.00;;;26.20;99.90;;;;;;4972935;28;20102;-73
2021/07/17 17:49:10;;;;;;;8.98;2.10;;;26.10;99.90;;;;;;4963591;28;20105;-74
2021/07/17 17:51:36;;;;;;;2.72;2.20;;;26.10;99.90;;;;;;4974152;28;20070;-75
2021/07/17 17:54:04;;;;;;;5.88;2.38;;;26.00;99.90;;;;;;4973251;28;20029;-75
2021/07/17 17:56:29;;;;;;;3.80;2.08;;;26.00;99.90;;;;;;4975300;28;20022;-74
2021/07/17 17:58:57;;;;;;;4.63;2.25;;;25.90;99.90;;;;;;4971802;28;20489;-75
2021/07/17 18:01:23;;;;;;;6.15;1.90;;;25.90;99.90;;;;;;4974725;28;20033;-74
2021/07/17 18:03:49;;;;;;;3.17;2.10;;;25.90;99.90;;;;;;4974263;28;20434;-74
2021/07/17 18:06:15;;;;;;;4.75;2.83;;;25.90;99.90;;;;;;4973040;28;20034;-77
2021/07/17 18:08:40;;;;;;;4.75;1.92;;;25.90;99.90;;;;;;4968956;28;20027;-75
2021/07/17 18:11:06;;;;;;;5.22;2.60;;;25.80;99.90;;;;;;4972217;28;20030;-75
2021/07/17 18:13:32;;;;;;;3.70;2.05;;;25.80;99.90;;;;;;4957316;28;20023;-77
2021/07/17 18:15:58;;;;;;;4.45;2.38;;;25.80;99.90;;;;;;4972032;28;20459;-75
2021/07/17 18:18:23;;;;;;;4.10;2.88;;;25.70;99.90;;;;;;4962662;28;20066;-76
2021/07/17 18:20:49;;;;;;;8.48;2.47;;;25.70;99.90;;;;;;4972231;28;20023;-75
2021/07/17 18:23:15;;;;;;;10.32;3.15;;;25.60;99.90;;;;;;4974061;28;20420;-76
2021/07/17 18:25:41;;;;;;;12.15;3.05;;;25.60;99.90;;;;;;4969296;28;20094;-76
2021/07/17 18:28:07;;;;;;;4.22;2.00;;;25.60;99.90;;;;;;4971309;28;20104;-76
2021/07/17 18:30:33;;;;;;;7.90;2.22;;;25.60;99.90;;;;;;4973681;28;20031;-75
2021/07/17 18:32:59;;;;;;;7.07;2.67;;;25.50;99.90;;;;;;4972294;28;20032;-74
2021/07/17 18:35:25;;;;;;;4.72;2.47;;;25.50;99.90;;;;;;4972832;28;20035;-76
2021/07/17 18:37:53;;;;;;;12.07;2.50;;;25.40;99.90;;;;;;4973621;28;20034;-75
2021/07/17 18:40:33;;;;;;;5.32;2.70;;;25.40;99.90;;;;;;4973833;28;20027;-75
2021/07/17 18:43:00;;;;;;;6.13;2.42;;;25.40;99.90;;;;;;4961984;28;20124;-75
2021/07/17 18:45:29;;;;;;;3.05;2.25;;;25.40;99.90;;;;;;4955072;28;20047;-75
2021/07/17 18:47:57;;;;;;;3.35;2.40;;;25.40;99.90;;;;;;4963434;28;20106;-75
2021/07/17 18:50:23;;;;;;;13.32;2.53;;;25.40;99.90;;;;;;4941998;28;20476;-77
2021/07/17 18:52:51;;;;;;;4.32;2.05;;;25.30;99.90;;;;;;4956085;28;20033;-77
2021/07/17 18:55:17;;;;;;;7.80;2.10;;;25.30;99.90;;;;;;4971815;28;20050;-76
2021/07/17 18:57:44;;;;;;;3.40;2.40;;;25.30;99.90;;;;;;4952993;28;20042;-78
2021/07/17 19:00:16;;;;;;;6.20;2.42;;;25.20;99.90;;;;;;4960803;28;20023;-72
2021/07/17 19:02:42;;;;;;;5.15;2.33;;;25.10;99.90;;;;;;4968562;28;20027;-75
2021/07/17 19:05:08;;;;;;;6.07;2.67;;;25.10;99.90;;;;;;4978873;28;20143;-75
2021/07/17 19:07:34;;;;;;;4.32;2.17;;;25.10;99.90;;;;;;4973267;28;20081;-76
2021/07/17 19:10:02;;;;;;;4.07;2.53;;;25.00;99.90;;;;;;4970207;28;20101;-79
2021/07/17 19:12:27;;;;;;;3.95;2.20;;;25.00;99.90;;;;;;4955870;28;20443;-77
2021/07/17 19:14:53;;;;;;;3.15;2.22;;;25.00;99.90;;;;;;4972538;28;20027;-85
2021/07/17 19:17:22;;;;;;;4.97;2.53;;;24.90;99.90;;;;;;4968192;28;20035;-75
2021/07/17 19:19:50;;;;;;;6.57;2.88;;;24.90;99.90;;;;;;4952905;28;20026;-76
2021/07/17 19:22:17;;;;;;;8.55;2.60;;;24.90;99.90;;;;;;4973263;28;20598;-80
2021/07/17 19:24:42;;;;;;;6.70;2.85;;;24.90;99.90;;;;;;4970946;28;20154;-77
2021/07/17 19:27:08;;;;;;;3.47;2.42;;;24.90;99.90;;;;;;4964614;28;20071;-77
2021/07/17 19:29:34;;;;;;;8.45;2.80;;;24.90;99.90;;;;;;4959643;28;20038;-75
2021/07/17 19:31:59;;;;;;;4.18;2.53;;;24.80;99.90;;;;;;4969378;28;21472;-75
2021/07/17 19:34:25;;;;;;;5.85;2.15;;;24.80;99.90;;;;;;4968401;28;20035;-75
2021/07/17 19:36:51;;;;;;;3.42;2.30;;;24.70;99.90;;;;;;4952471;28;20039;-80
2021/07/17 19:39:16;;;;;;;5.55;2.42;;;24.70;99.90;;;;;;4971230;28;20034;-82
2021/07/17 19:41:42;;;;;;;4.60;2.78;;;24.70;99.90;;;;;;4972432;28;20539;-78
2021/07/17 19:44:08;;;;;;;5.05;2.70;;;24.70;99.90;;;;;;4970470;28;20066;-76
2021/07/17 19:46:34;;;;;;;5.00;3.20;;;24.60;99.90;;;;;;4961940;28;20523;-75
2021/07/17 19:49:00;;;;;;;6.55;2.75;;;24.50;99.90;;;;;;4961113;28;20027;-77
2021/07/17 19:51:27;;;;;;;3.42;2.92;;;24.50;99.90;;;;;;4969388;28;20444;-76
2021/07/17 19:53:53;;;;;;;7.88;3.10;;;24.50;99.90;;;;;;4968529;28;20023;-75
2021/07/17 19:56:18;;;;;;;4.75;2.83;;;24.50;99.90;;;;;;4972932;28;20022;-80
2021/07/17 19:58:46;;;;;;;6.28;3.70;;;24.50;99.90;;;;;;4965935;28;20089;-75
2021/07/17 20:01:12;;;;;;;10.57;3.72;;;24.50;99.90;;;;;;4969076;28;20105;-75
2021/07/17 20:03:37;;;;;;;7.38;3.75;;;24.40;99.90;;;;;;4960059;28;20113;-77
2021/07/17 20:06:03;;;;;;;9.80;3.60;;;24.30;99.90;;;;;;4974822;28;20038;-75
2021/07/17 20:08:29;;;;;;;7.95;3.30;;;24.30;99.90;;;;;;4956449;28;20027;-75
2021/07/17 20:10:55;;;;;;;13.38;3.63;;;24.20;99.90;;;;;;4970246;28;20106;-77
2021/07/17 20:13:21;;;;;;;5.80;3.33;;;24.20;99.90;;;;;;4977238;28;20034;-86
2021/07/17 20:15:47;;;;;;;14.95;3.42;;;24.20;99.90;;;;;;4966881;28;20031;-77
2021/07/17 20:18:12;;;;;;;5.53;3.63;;;24.20;99.90;;;;;;4956058;28;20457;-85
2021/07/17 20:20:38;;;;;;;6.22;3.33;;;24.10;99.90;;;;;;4970542;28;20019;-82
2021/07/17 20:23:04;;;;;;;4.25;3.10;;;24.10;99.90;;;;;;4966565;28;20031;-86
2021/07/17 20:25:32;;;;;;;4.00;2.80;;;24.10;99.90;;;;;;4969857;28;20026;-76
2021/07/17 20:27:57;;;;;;;6.80;2.80;;;24.10;99.90;;;;;;4968305;28;20031;-76
2021/07/17 20:30:23;;;;;;;5.15;3.30;;;24.00;99.90;;;;;;4969679;28;20162;-76
2021/07/17 20:32:49;;;;;;;11.95;3.78;;;24.10;99.90;;;;;;4958671;28;20059;-78
2021/07/17 20:35:16;;;;;;;6.50;3.10;;;24.10;99.90;;;;;;4962288;28;20519;-82
2021/07/17 20:37:44;;;;;;;5.80;3.22;;;24.00;99.90;;;;;;4970768;28;20092;-76
2021/07/17 20:40:14;;;;;;;8.52;3.28;;;24.00;99.90;;;;;;4969025;28;20022;-85
2021/07/17 20:42:40;;;;;;;6.93;2.88;;;24.00;99.90;;;;;;4971676;28;20030;-80
2021/07/17 20:45:06;;;;;;;5.00;2.72;;;24.00;99.90;;;;;;4963403;28;20512;-74
2021/07/17 20:47:32;;;;;;;6.25;3.55;;;24.00;99.90;;;;;;4965517;28;20035;-76
2021/07/17 20:49:58;;;;;;;5.78;3.22;;;24.00;99.90;;;;;;4968737;28;20097;-77
2021/07/17 20:52:23;;;;;;;12.45;3.80;;;24.00;99.90;;;;;;4969139;28;20417;-79
2021/07/17 20:54:49;;;;;;;14.70;10.20;;;23.90;99.90;;;;;;4960437;28;20049;-80
2021/07/17 20:57:15;;;;;;;7.60;3.95;;;23.90;99.90;;;;;;4963276;28;20031;-76
2021/07/17 20:59:42;;;;;;;7.50;3.65;;;23.90;99.90;;;;;;4953599;28;20041;-83
2021/07/17 21:02:08;;;;;;;5.68;3.22;;;23.90;99.90;;;;;;4951216;28;20023;-75
2021/07/17 21:04:36;;;;;;;6.68;3.60;;;23.90;99.90;;;;;;4965292;28;20506;-78
2021/07/17 21:07:03;;;;;;;5.50;3.40;;;24.00;99.90;;;;;;4967924;28;20054;-75
2021/07/17 21:09:29;;;;;;;6.03;3.33;;;23.90;99.90;;;;;;4967540;28;20490;-78
2021/07/17 21:11:57;;;;;;;7.88;3.53;;;23.90;99.90;;;;;;4969446;28;20113;-75
2021/07/17 21:14:27;;;;;;;7.28;3.85;;;23.90;99.90;;;;;;4971671;28;20031;-83
2021/07/17 21:16:53;;;;;;;10.18;3.72;;;23.90;99.90;;;;;;4954841;28;20507;-76
2021/07/17 21:19:19;;;;;;;5.28;3.17;;;23.80;99.90;;;;;;4952341;28;20054;-75
2021/07/17 21:21:46;;;;;;;5.28;3.63;;;23.80;99.90;;;;;;4967032;28;20015;-78
2021/07/17 21:24:11;;;;;;;7.00;3.45;;;23.80;99.90;;;;;;4975581;28;20098;-78
2021/07/17 21:26:37;;;;;;;6.63;3.55;;;23.80;99.90;;;;;;4969583;28;20027;-75
2021/07/17 21:29:03;;;;;;;7.93;3.33;;;23.80;99.90;;;;;;4975287;28;20463;-75
2021/07/17 21:31:28;;;;;;;5.22;3.47;;;23.80;99.90;;;;;;4957448;28;20492;-78
2021/07/17 21:33:54;;;;;;;8.43;3.42;;;23.80;99.90;;;;;;4972944;28;20109;-77
2021/07/17 21:36:20;;;;;;;7.05;3.65;;;23.80;99.90;;;;;;4972945;28;20026;-76
2021/07/17 21:38:45;;;;;;;8.90;3.70;;;23.80;99.90;;;;;;4968984;28;20428;-74
2021/07/17 21:41:12;;;;;;;6.40;3.25;;;23.80;99.90;;;;;;4963286;28;20019;-77
2021/07/17 21:43:39;;;;;;;10.95;3.67;;;23.80;99.90;;;;;;4956637;28;20464;-76
2021/07/17 21:46:05;;;;;;;6.95;3.38;;;23.70;99.90;;;;;;4945740;28;20035;-76
2021/07/17 21:48:31;;;;;;;10.13;3.80;;;23.70;99.90;;;;;;4955104;28;20030;-75
2021/07/17 21:50:57;;;;;;;8.35;3.88;;;23.70;99.90;;;;;;4952771;28;20071;-76
2021/07/17 21:53:23;;;;;;;10.20;3.67;;;23.70;99.90;;;;;;4949119;28;20031;-75
2021/07/17 21:55:51;;;;;;;13.50;3.85;;;23.70;99.90;;;;;;4955278;28;20388;-76
2021/07/17 21:58:17;;;;;;;11.05;4.07;;;23.70;99.90;;;;;;4950950;28;20035;-77
2021/07/17 22:00:56;;;;;;;8.57;3.45;;;23.60;99.90;;;;;;4939223;28;20034;-76
2021/07/17 22:03:24;;;;;;;7.72;3.65;;;23.60;99.90;;;;;;4949927;28;20049;-75
2021/07/17 22:05:50;;;;;;;7.47;3.90;;;23.60;99.90;;;;;;4962198;28;20026;-77
2021/07/17 22:08:21;;;;;;;6.25;3.78;;;23.60;99.90;;;;;;4959306;28;20166;-77
2021/07/17 22:10:59;;;;;;;9.95;4.20;;;23.60;99.90;;;;;;4954921;28;20392;-76
2021/07/17 22:13:26;;;;;;;7.57;3.97;;;23.60;99.90;;;;;;4955024;28;20736;-74
2021/07/17 22:15:57;;;;;;;10.60;4.03;;;23.60;99.90;;;;;;4954426;28;20473;-73
2021/07/17 22:18:26;;;;;;;10.45;4.10;;;23.60;99.90;;;;;;4954945;28;20042;-73
2021/07/17 22:20:53;;;;;;;5.68;3.75;;;23.60;99.90;;;;;;4954595;28;20027;-76
2021/07/17 22:23:19;;;;;;;6.43;3.95;;;23.60;99.90;;;;;;4941073;28;20389;-73
2021/07/17 22:25:46;;;;;;;6.15;3.85;;;23.60;99.90;;;;;;4943267;28;20084;-74
2021/07/17 22:28:12;;;;;;;7.22;4.20;;;23.60;99.90;;;;;;4942363;28;20031;-78
2021/07/17 22:30:38;;;;;;;8.77;3.97;;;23.60;99.90;;;;;;4949519;28;20034;-73
2021/07/17 22:33:06;;;;;;;8.73;3.75;;;23.60;99.90;;;;;;4945872;28;20033;-73
2021/07/17 22:35:32;;;;;;;5.38;3.75;;;23.60;99.90;;;;;;4942432;28;20039;-73
2021/07/17 22:37:58;;;;;;;9.05;4.32;;;23.60;99.90;;;;;;4935999;28;20488;-74
2021/07/17 22:40:28;;;;;;;5.13;3.80;;;23.50;99.90;;;;;;4948203;28;20035;-75
2021/07/17 22:42:54;;;;;;;11.27;3.63;;;23.50;99.90;;;;;;4942164;28;20027;-76
2021/07/17 22:45:20;;;;;;;7.13;3.55;;;23.50;99.90;;;;;;4938546;28;20525;-80
2021/07/17 22:47:45;;;;;;;9.15;4.50;;;23.50;99.90;;;;;;4953861;28;20015;-73
2021/07/17 22:50:13;;;;;;;5.50;3.85;;;23.50;99.90;;;;;;4954857;28;20034;-73
2021/07/17 22:52:42;;;;;;;7.45;4.20;;;23.50;99.90;;;;;;4953352;28;20604;-80
2021/07/17 22:55:16;;;;;;;12.48;3.97;;;23.50;99.90;;;;;;4949985;28;20015;-73
2021/07/17 22:57:46;;;;;;;6.82;4.57;;;23.50;99.90;;;;;;4954439;28;20500;-74
2021/07/17 23:00:19;;;;;;;6.45;4.28;;;23.50;99.90;;;;;;4954749;28;20435;-73
2021/07/17 23:02:45;;;;;;;11.90;4.75;;;23.50;99.90;;;;;;4954451;28;20027;-78
2021/07/17 23:05:16;;;;;;;6.80;4.03;;;23.50;99.90;;;;;;4954842;28;20019;-74
2021/07/17 23:07:42;;;;;;;8.03;4.13;;;23.40;99.90;;;;;;4950543;28;20035;-75
2021/07/17 23:10:09;;;;;;;11.68;4.53;;;23.40;99.90;;;;;;4954684;28;20259;-73
2021/07/17 23:12:39;;;;;;;8.32;4.00;;;23.40;99.90;;;;;;4954805;28;20065;-73
2021/07/17 23:15:07;;;;;;;5.05;3.97;;;23.40;99.90;;;;;;4954428;28;20357;-75
2021/07/17 23:17:33;;;;;;;6.95;4.07;;;23.40;99.90;;;;;;4954764;28;20404;-75
2021/07/17 23:19:59;;;;;;;9.05;4.20;;;23.40;99.90;;;;;;4954280;28;20024;-74
2021/07/17 23:22:25;;;;;;;7.40;3.92;;;23.40;99.90;;;;;;4954765;28;20023;-74
2021/07/17 23:24:50;;;;;;;11.20;4.15;;;23.40;99.90;;;;;;4954697;28;20024;-72
2021/07/17 23:27:16;;;;;;;7.20;4.22;;;23.40;99.90;;;;;;4954710;28;20050;-73
2021/07/17 23:29:42;;;;;;;10.90;4.40;;;23.40;99.90;;;;;;4954370;28;20039;-74
2021/07/17 23:32:08;;;;;;;6.15;4.30;;;23.40;99.90;;;;;;4954338;28;20049;-73
2021/07/17 23:34:34;;;;;;;10.90;4.43;;;23.40;99.90;;;;;;4954064;28;20042;-74
2021/07/17 23:37:00;;;;;;;7.05;4.28;;;23.40;99.90;;;;;;4954117;28;20043;-80
2021/07/17 23:39:26;;;;;;;7.28;4.38;;;23.50;99.90;;;;;;4952351;28;20080;-74
2021/07/17 23:41:52;;;;;;;5.22;4.28;;;23.50;99.90;;;;;;4954151;28;20565;-73
2021/07/17 23:44:18;;;;;;;11.90;4.60;;;23.50;99.90;;;;;;4959371;28;20110;-73
2021/07/17 23:46:43;;;;;;;5.97;4.43;;;23.50;99.90;;;;;;4973583;28;20042;-74
2021/07/17 23:49:11;;;;;;;7.82;4.10;;;23.50;99.90;;;;;;4973660;28;20019;-76
2021/07/17 23:51:37;;;;;;;8.55;4.45;;;23.50;99.90;;;;;;4973562;28;20027;-74
2021/07/17 23:54:03;;;;;;;12.82;4.88;;;23.50;99.90;;;;;;4956092;28;20026;-75
2021/07/17 23:56:31;;;;;;;15.75;5.03;;;23.50;99.90;;;;;;4973566;28;20047;-73
2021/07/17 23:58:56;;;;;;;7.97;4.32;;;23.50;99.90;;;;;;4973201;28;20034;-74
